sensor_id;sensor_type;location;lat;lon;timestamp;P1;durP1;ratioP1;P2;durP2;ratioP2
73776;SDS011;62088;50.240;2.696;2024-02-16T00:00:10;7.82;;;3.85;;
73776;SDS011;62088;50.240;2.696;2024-02-16T00:02:39;6.20;;;3.15;;
73776;SDS011;62088;50.240;2.696;2024-02-16T00:05:10;6.97;;;3.08;;
73776;SDS011;62088;50.240;2.696;2024-02-16T00:07:39;7.20;;;3.50;;
73776;SDS011;62088;50.240;2.696;2024-02-16T00:10:06;6.40;;;3.75;;
73776;SDS011;62088;50.240;2.696;2024-02-16T00:12:35;6.82;;;4.00;;
73776;SDS011;62088;50.240;2.696;2024-02-16T00:15:03;6.38;;;2.72;;
73776;SDS011;62088;50.240;2.696;2024-02-16T00:17:30;9.88;;;3.55;;
73776;SDS011;62088;50.240;2.696;2024-02-16T00:19:57;6.35;;;3.67;;
73776;SDS011;62088;50.240;2.696;2024-02-16T00:22:24;7.22;;;3.58;;
73776;SDS011;62088;50.240;2.696;2024-02-16T00:24:52;6.05;;;3.65;;
73776;SDS011;62088;50.240;2.696;2024-02-16T00:27:19;7.47;;;3.53;;
73776;SDS011;62088;50.240;2.696;2024-02-16T00:29:46;6.47;;;3.65;;
73776;SDS011;62088;50.240;2.696;2024-02-16T00:32:14;8.18;;;2.92;;
73776;SDS011;62088;50.240;2.696;2024-02-16T00:34:41;7.03;;;3.67;;
73776;SDS011;62088;50.240;2.696;2024-02-16T00:37:08;14.05;;;7.45;;
73776;SDS011;62088;50.240;2.696;2024-02-16T00:39:37;9.95;;;7.75;;
73776;SDS011;62088;50.240;2.696;2024-02-16T00:42:08;11.32;;;4.78;;
73776;SDS011;62088;50.240;2.696;2024-02-16T00:44:35;6.03;;;3.47;;
73776;SDS011;62088;50.240;2.696;2024-02-16T00:47:03;6.90;;;4.05;;
73776;SDS011;62088;50.240;2.696;2024-02-16T00:49:32;8.15;;;3.63;;
73776;SDS011;62088;50.240;2.696;2024-02-16T00:52:00;7.05;;;3.40;;
73776;SDS011;62088;50.240;2.696;2024-02-16T00:54:28;8.57;;;3.60;;
73776;SDS011;62088;50.240;2.696;2024-02-16T00:56:55;6.13;;;3.17;;
73776;SDS011;62088;50.240;2.696;2024-02-16T00:59:30;6.43;;;3.30;;
73776;SDS011;62088;50.240;2.696;2024-02-16T01:01:57;9.93;;;3.75;;
73776;SDS011;62088;50.240;2.696;2024-02-16T01:04:24;6.95;;;4.03;;
73776;SDS011;62088;50.240;2.696;2024-02-16T01:06:51;7.50;;;4.03;;
73776;SDS011;62088;50.240;2.696;2024-02-16T01:09:18;6.50;;;3.20;;
73776;SDS011;62088;50.240;2.696;2024-02-16T01:11:45;6.28;;;3.28;;
73776;SDS011;62088;50.240;2.696;2024-02-16T01:14:12;5.72;;;3.17;;
73776;SDS011;62088;50.240;2.696;2024-02-16T01:16:41;12.10;;;3.60;;
73776;SDS011;62088;50.240;2.696;2024-02-16T01:19:08;5.82;;;2.80;;
73776;SDS011;62088;50.240;2.696;2024-02-16T01:21:36;12.30;;;3.80;;
73776;SDS011;62088;50.240;2.696;2024-02-16T01:24:04;9.48;;;3.45;;
73776;SDS011;62088;50.240;2.696;2024-02-16T01:26:31;5.78;;;3.75;;
73776;SDS011;62088;50.240;2.696;2024-02-16T01:28:59;6.57;;;3.95;;
73776;SDS011;62088;50.240;2.696;2024-02-16T01:31:26;5.63;;;3.20;;
73776;SDS011;62088;50.240;2.696;2024-02-16T01:33:53;7.72;;;3.75;;
73776;SDS011;62088;50.240;2.696;2024-02-16T01:36:20;5.95;;;3.15;;
73776;SDS011;62088;50.240;2.696;2024-02-16T01:38:47;9.43;;;4.07;;
73776;SDS011;62088;50.240;2.696;2024-02-16T01:41:15;5.80;;;2.85;;
73776;SDS011;62088;50.240;2.696;2024-02-16T01:43:43;6.32;;;3.55;;
73776;SDS011;62088;50.240;2.696;2024-02-16T01:46:10;6.72;;;2.95;;
73776;SDS011;62088;50.240;2.696;2024-02-16T01:48:37;6.75;;;3.22;;
73776;SDS011;62088;50.240;2.696;2024-02-16T01:51:08;10.02;;;5.10;;
73776;SDS011;62088;50.240;2.696;2024-02-16T01:53:36;7.63;;;4.97;;
73776;SDS011;62088;50.240;2.696;2024-02-16T01:56:04;9.30;;;5.15;;
73776;SDS011;62088;50.240;2.696;2024-02-16T01:58:32;8.23;;;5.10;;
73776;SDS011;62088;50.240;2.696;2024-02-16T02:01:00;9.90;;;6.45;;
73776;SDS011;62088;50.240;2.696;2024-02-16T02:03:28;9.70;;;4.55;;
73776;SDS011;62088;50.240;2.696;2024-02-16T02:05:55;6.60;;;3.90;;
73776;SDS011;62088;50.240;2.696;2024-02-16T02:08:23;8.35;;;3.42;;
73776;SDS011;62088;50.240;2.696;2024-02-16T02:10:51;6.85;;;3.40;;
73776;SDS011;62088;50.240;2.696;2024-02-16T02:13:18;6.75;;;3.05;;
73776;SDS011;62088;50.240;2.696;2024-02-16T02:15:46;6.25;;;3.50;;
73776;SDS011;62088;50.240;2.696;2024-02-16T02:18:13;7.35;;;3.75;;
73776;SDS011;62088;50.240;2.696;2024-02-16T02:20:40;6.32;;;3.30;;
73776;SDS011;62088;50.240;2.696;2024-02-16T02:23:08;7.35;;;2.92;;
73776;SDS011;62088;50.240;2.696;2024-02-16T02:25:35;6.88;;;3.28;;
73776;SDS011;62088;50.240;2.696;2024-02-16T02:28:03;5.10;;;3.00;;
73776;SDS011;62088;50.240;2.696;2024-02-16T02:30:30;5.82;;;2.67;;
73776;SDS011;62088;50.240;2.696;2024-02-16T02:32:57;6.07;;;3.22;;
73776;SDS011;62088;50.240;2.696;2024-02-16T02:35:24;6.63;;;3.38;;
73776;SDS011;62088;50.240;2.696;2024-02-16T02:37:51;6.40;;;3.53;;
73776;SDS011;62088;50.240;2.696;2024-02-16T02:40:18;5.32;;;2.97;;
73776;SDS011;62088;50.240;2.696;2024-02-16T02:42:45;8.27;;;2.85;;
73776;SDS011;62088;50.240;2.696;2024-02-16T02:45:12;6.55;;;3.85;;
73776;SDS011;62088;50.240;2.696;2024-02-16T02:47:39;7.50;;;3.78;;
73776;SDS011;62088;50.240;2.696;2024-02-16T02:50:07;9.38;;;3.05;;
73776;SDS011;62088;50.240;2.696;2024-02-16T02:52:34;8.15;;;3.63;;
73776;SDS011;62088;50.240;2.696;2024-02-16T02:55:01;6.65;;;3.25;;
73776;SDS011;62088;50.240;2.696;2024-02-16T02:57:28;5.25;;;2.75;;
73776;SDS011;62088;50.240;2.696;2024-02-16T03:00:05;6.45;;;3.17;;
73776;SDS011;62088;50.240;2.696;2024-02-16T03:02:37;8.20;;;3.58;;
73776;SDS011;62088;50.240;2.696;2024-02-16T03:05:08;5.63;;;3.05;;
73776;SDS011;62088;50.240;2.696;2024-02-16T03:07:35;6.85;;;3.42;;
73776;SDS011;62088;50.240;2.696;2024-02-16T03:10:02;6.00;;;3.35;;
73776;SDS011;62088;50.240;2.696;2024-02-16T03:12:31;6.28;;;3.13;;
73776;SDS011;62088;50.240;2.696;2024-02-16T03:14:59;14.02;;;3.83;;
73776;SDS011;62088;50.240;2.696;2024-02-16T03:17:26;6.90;;;3.45;;
73776;SDS011;62088;50.240;2.696;2024-02-16T03:19:53;6.60;;;2.65;;
73776;SDS011;62088;50.240;2.696;2024-02-16T03:22:21;6.15;;;3.50;;
73776;SDS011;62088;50.240;2.696;2024-02-16T03:24:48;7.10;;;3.10;;
73776;SDS011;62088;50.240;2.696;2024-02-16T03:27:15;5.85;;;3.30;;
73776;SDS011;62088;50.240;2.696;2024-02-16T03:29:42;4.60;;;2.83;;
73776;SDS011;62088;50.240;2.696;2024-02-16T03:32:10;6.75;;;3.60;;
73776;SDS011;62088;50.240;2.696;2024-02-16T03:34:37;4.90;;;2.95;;
73776;SDS011;62088;50.240;2.696;2024-02-16T03:37:05;4.25;;;2.38;;
73776;SDS011;62088;50.240;2.696;2024-02-16T03:39:31;7.20;;;3.45;;
73776;SDS011;62088;50.240;2.696;2024-02-16T03:41:59;8.38;;;3.17;;
73776;SDS011;62088;50.240;2.696;2024-02-16T03:44:26;6.97;;;3.85;;
73776;SDS011;62088;50.240;2.696;2024-02-16T03:46:53;6.35;;;3.30;;
73776;SDS011;62088;50.240;2.696;2024-02-16T03:49:22;6.35;;;3.25;;
73776;SDS011;62088;50.240;2.696;2024-02-16T03:51:49;8.85;;;3.92;;
73776;SDS011;62088;50.240;2.696;2024-02-16T03:54:17;5.57;;;3.20;;
73776;SDS011;62088;50.240;2.696;2024-02-16T03:56:44;6.55;;;3.42;;
73776;SDS011;62088;50.240;2.696;2024-02-16T03:59:11;11.05;;;4.15;;
73776;SDS011;62088;50.240;2.696;2024-02-16T04:01:38;6.28;;;3.50;;
73776;SDS011;62088;50.240;2.696;2024-02-16T04:04:08;5.78;;;3.28;;
73776;SDS011;62088;50.240;2.696;2024-02-16T04:06:35;7.18;;;3.45;;
73776;SDS011;62088;50.240;2.696;2024-02-16T04:09:03;6.55;;;3.75;;
73776;SDS011;62088;50.240;2.696;2024-02-16T04:11:32;6.85;;;2.83;;
73776;SDS011;62088;50.240;2.696;2024-02-16T04:14:00;7.50;;;4.03;;
73776;SDS011;62088;50.240;2.696;2024-02-16T04:16:28;7.43;;;3.78;;
73776;SDS011;62088;50.240;2.696;2024-02-16T04:18:55;6.50;;;2.85;;
73776;SDS011;62088;50.240;2.696;2024-02-16T04:21:22;6.78;;;3.72;;
73776;SDS011;62088;50.240;2.696;2024-02-16T04:23:49;6.22;;;3.50;;
73776;SDS011;62088;50.240;2.696;2024-02-16T04:26:17;7.07;;;3.75;;
73776;SDS011;62088;50.240;2.696;2024-02-16T04:28:44;6.43;;;3.35;;
73776;SDS011;62088;50.240;2.696;2024-02-16T04:31:11;8.60;;;3.38;;
73776;SDS011;62088;50.240;2.696;2024-02-16T04:33:38;5.85;;;2.58;;
73776;SDS011;62088;50.240;2.696;2024-02-16T04:36:06;6.45;;;3.33;;
73776;SDS011;62088;50.240;2.696;2024-02-16T04:38:34;10.15;;;3.63;;
73776;SDS011;62088;50.240;2.696;2024-02-16T04:41:01;8.63;;;3.67;;
73776;SDS011;62088;50.240;2.696;2024-02-16T04:43:28;8.73;;;3.75;;
73776;SDS011;62088;50.240;2.696;2024-02-16T04:45:55;5.82;;;3.00;;
73776;SDS011;62088;50.240;2.696;2024-02-16T04:48:22;9.60;;;3.67;;
73776;SDS011;62088;50.240;2.696;2024-02-16T04:50:49;12.18;;;4.05;;
73776;SDS011;62088;50.240;2.696;2024-02-16T04:53:16;7.45;;;3.63;;
73776;SDS011;62088;50.240;2.696;2024-02-16T04:55:43;5.47;;;2.55;;
73776;SDS011;62088;50.240;2.696;2024-02-16T04:58:10;4.88;;;2.83;;
73776;SDS011;62088;50.240;2.696;2024-02-16T05:00:38;8.88;;;3.72;;
73776;SDS011;62088;50.240;2.696;2024-02-16T05:03:05;4.57;;;2.50;;
73776;SDS011;62088;50.240;2.696;2024-02-16T05:05:33;7.00;;;3.28;;
73776;SDS011;62088;50.240;2.696;2024-02-16T05:08:00;8.32;;;3.20;;
73776;SDS011;62088;50.240;2.696;2024-02-16T05:10:27;7.40;;;3.40;;
73776;SDS011;62088;50.240;2.696;2024-02-16T05:12:54;8.43;;;3.40;;
73776;SDS011;62088;50.240;2.696;2024-02-16T05:15:24;6.93;;;3.42;;
73776;SDS011;62088;50.240;2.696;2024-02-16T05:17:52;7.93;;;3.97;;
73776;SDS011;62088;50.240;2.696;2024-02-16T05:20:20;8.65;;;3.22;;
73776;SDS011;62088;50.240;2.696;2024-02-16T05:22:47;7.60;;;3.70;;
73776;SDS011;62088;50.240;2.696;2024-02-16T05:25:16;8.70;;;2.97;;
73776;SDS011;62088;50.240;2.696;2024-02-16T05:27:46;6.55;;;3.20;;
73776;SDS011;62088;50.240;2.696;2024-02-16T05:30:14;7.20;;;3.55;;
73776;SDS011;62088;50.240;2.696;2024-02-16T05:32:42;6.38;;;3.20;;
73776;SDS011;62088;50.240;2.696;2024-02-16T05:35:11;5.82;;;3.03;;
73776;SDS011;62088;50.240;2.696;2024-02-16T05:37:44;6.72;;;3.50;;
73776;SDS011;62088;50.240;2.696;2024-02-16T05:40:14;7.28;;;3.65;;
73776;SDS011;62088;50.240;2.696;2024-02-16T05:42:53;6.00;;;3.28;;
73776;SDS011;62088;50.240;2.696;2024-02-16T05:45:21;9.73;;;3.80;;
73776;SDS011;62088;50.240;2.696;2024-02-16T05:47:48;8.52;;;3.20;;
73776;SDS011;62088;50.240;2.696;2024-02-16T05:50:16;8.88;;;3.35;;
73776;SDS011;62088;50.240;2.696;2024-02-16T05:52:43;8.98;;;3.53;;
73776;SDS011;62088;50.240;2.696;2024-02-16T05:55:11;4.78;;;2.58;;
73776;SDS011;62088;50.240;2.696;2024-02-16T05:57:38;6.47;;;2.97;;
73776;SDS011;62088;50.240;2.696;2024-02-16T06:00:06;11.52;;;3.70;;
73776;SDS011;62088;50.240;2.696;2024-02-16T06:02:36;5.93;;;3.10;;
73776;SDS011;62088;50.240;2.696;2024-02-16T06:05:03;10.20;;;3.13;;
73776;SDS011;62088;50.240;2.696;2024-02-16T06:07:31;6.88;;;3.67;;
73776;SDS011;62088;50.240;2.696;2024-02-16T06:09:58;10.20;;;4.05;;
73776;SDS011;62088;50.240;2.696;2024-02-16T06:12:25;7.95;;;3.00;;
73776;SDS011;62088;50.240;2.696;2024-02-16T06:14:53;7.50;;;3.33;;
73776;SDS011;62088;50.240;2.696;2024-02-16T06:17:21;9.82;;;4.05;;
73776;SDS011;62088;50.240;2.696;2024-02-16T06:19:48;6.68;;;3.58;;
73776;SDS011;62088;50.240;2.696;2024-02-16T06:22:15;5.70;;;2.67;;
73776;SDS011;62088;50.240;2.696;2024-02-16T06:24:42;8.48;;;3.92;;
73776;SDS011;62088;50.240;2.696;2024-02-16T06:27:09;7.65;;;3.63;;
73776;SDS011;62088;50.240;2.696;2024-02-16T06:29:36;8.45;;;3.53;;
73776;SDS011;62088;50.240;2.696;2024-02-16T06:32:03;11.75;;;4.30;;
73776;SDS011;62088;50.240;2.696;2024-02-16T06:34:31;6.75;;;2.80;;
73776;SDS011;62088;50.240;2.696;2024-02-16T06:36:58;6.10;;;3.42;;
73776;SDS011;62088;50.240;2.696;2024-02-16T06:39:29;8.70;;;3.65;;
73776;SDS011;62088;50.240;2.696;2024-02-16T06:41:57;10.27;;;4.32;;
73776;SDS011;62088;50.240;2.696;2024-02-16T06:44:24;7.32;;;3.67;;
73776;SDS011;62088;50.240;2.696;2024-02-16T06:46:51;9.57;;;3.00;;
73776;SDS011;62088;50.240;2.696;2024-02-16T06:49:18;9.75;;;3.78;;
73776;SDS011;62088;50.240;2.696;2024-02-16T06:51:45;8.55;;;2.80;;
73776;SDS011;62088;50.240;2.696;2024-02-16T06:54:13;9.65;;;3.28;;
73776;SDS011;62088;50.240;2.696;2024-02-16T06:56:41;9.20;;;2.95;;
73776;SDS011;62088;50.240;2.696;2024-02-16T06:59:08;12.20;;;3.13;;
73776;SDS011;62088;50.240;2.696;2024-02-16T07:01:35;11.15;;;4.50;;
73776;SDS011;62088;50.240;2.696;2024-02-16T07:04:02;9.93;;;3.58;;
73776;SDS011;62088;50.240;2.696;2024-02-16T07:06:30;12.75;;;3.78;;
73776;SDS011;62088;50.240;2.696;2024-02-16T07:08:57;10.10;;;3.97;;
73776;SDS011;62088;50.240;2.696;2024-02-16T07:11:24;9.57;;;3.72;;
73776;SDS011;62088;50.240;2.696;2024-02-16T07:13:51;9.90;;;3.67;;
73776;SDS011;62088;50.240;2.696;2024-02-16T07:16:18;9.57;;;3.60;;
73776;SDS011;62088;50.240;2.696;2024-02-16T07:18:45;14.43;;;3.63;;
73776;SDS011;62088;50.240;2.696;2024-02-16T07:21:13;10.57;;;3.85;;
73776;SDS011;62088;50.240;2.696;2024-02-16T07:23:40;9.05;;;3.58;;
73776;SDS011;62088;50.240;2.696;2024-02-16T07:26:07;12.52;;;3.97;;
73776;SDS011;62088;50.240;2.696;2024-02-16T07:28:34;7.70;;;3.75;;
73776;SDS011;62088;50.240;2.696;2024-02-16T07:31:02;9.18;;;3.88;;
73776;SDS011;62088;50.240;2.696;2024-02-16T07:33:29;9.07;;;4.88;;
73776;SDS011;62088;50.240;2.696;2024-02-16T07:35:57;10.10;;;3.40;;
73776;SDS011;62088;50.240;2.696;2024-02-16T07:38:24;11.60;;;2.90;;
73776;SDS011;62088;50.240;2.696;2024-02-16T07:40:51;10.30;;;4.53;;
73776;SDS011;62088;50.240;2.696;2024-02-16T07:43:18;13.05;;;4.68;;
73776;SDS011;62088;50.240;2.696;2024-02-16T07:45:45;11.48;;;4.35;;
73776;SDS011;62088;50.240;2.696;2024-02-16T07:48:13;16.10;;;4.20;;
73776;SDS011;62088;50.240;2.696;2024-02-16T07:50:41;13.35;;;4.57;;
73776;SDS011;62088;50.240;2.696;2024-02-16T07:53:08;11.75;;;4.95;;
73776;SDS011;62088;50.240;2.696;2024-02-16T07:55:37;10.50;;;3.72;;
73776;SDS011;62088;50.240;2.696;2024-02-16T07:58:04;11.85;;;4.90;;
73776;SDS011;62088;50.240;2.696;2024-02-16T08:00:32;9.10;;;4.75;;
73776;SDS011;62088;50.240;2.696;2024-02-16T08:02:59;13.52;;;4.60;;
73776;SDS011;62088;50.240;2.696;2024-02-16T08:05:27;13.65;;;4.53;;
73776;SDS011;62088;50.240;2.696;2024-02-16T08:07:54;11.70;;;4.70;;
73776;SDS011;62088;50.240;2.696;2024-02-16T08:10:22;21.75;;;6.22;;
73776;SDS011;62088;50.240;2.696;2024-02-16T08:12:51;13.68;;;4.70;;
73776;SDS011;62088;50.240;2.696;2024-02-16T08:15:19;18.23;;;5.97;;
73776;SDS011;62088;50.240;2.696;2024-02-16T08:17:52;15.77;;;5.45;;
73776;SDS011;62088;50.240;2.696;2024-02-16T08:20:20;20.38;;;4.75;;
73776;SDS011;62088;50.240;2.696;2024-02-16T08:22:48;11.02;;;5.65;;
73776;SDS011;62088;50.240;2.696;2024-02-16T08:25:15;12.57;;;5.13;;
73776;SDS011;62088;50.240;2.696;2024-02-16T08:27:42;14.32;;;5.35;;
73776;SDS011;62088;50.240;2.696;2024-02-16T08:30:09;14.00;;;5.88;;
73776;SDS011;62088;50.240;2.696;2024-02-16T08:32:38;11.07;;;5.90;;
73776;SDS011;62088;50.240;2.696;2024-02-16T08:35:06;13.82;;;6.00;;
73776;SDS011;62088;50.240;2.696;2024-02-16T08:37:33;16.52;;;7.18;;
73776;SDS011;62088;50.240;2.696;2024-02-16T08:40:00;14.98;;;4.63;;
73776;SDS011;62088;50.240;2.696;2024-02-16T08:42:28;13.13;;;6.15;;
73776;SDS011;62088;50.240;2.696;2024-02-16T08:44:55;15.00;;;6.63;;
73776;SDS011;62088;50.240;2.696;2024-02-16T08:47:24;22.15;;;6.40;;
73776;SDS011;62088;50.240;2.696;2024-02-16T08:49:51;11.50;;;5.97;;
73776;SDS011;62088;50.240;2.696;2024-02-16T08:52:18;13.32;;;6.75;;
73776;SDS011;62088;50.240;2.696;2024-02-16T08:54:45;11.50;;;6.45;;
73776;SDS011;62088;50.240;2.696;2024-02-16T08:57:12;12.40;;;5.50;;
73776;SDS011;62088;50.240;2.696;2024-02-16T08:59:39;15.85;;;6.88;;
73776;SDS011;62088;50.240;2.696;2024-02-16T09:02:06;13.85;;;6.82;;
73776;SDS011;62088;50.240;2.696;2024-02-16T09:04:33;14.05;;;7.38;;
73776;SDS011;62088;50.240;2.696;2024-02-16T09:07:01;12.98;;;7.32;;
73776;SDS011;62088;50.240;2.696;2024-02-16T09:09:28;17.95;;;6.57;;
73776;SDS011;62088;50.240;2.696;2024-02-16T09:11:55;17.85;;;6.22;;
73776;SDS011;62088;50.240;2.696;2024-02-16T09:14:23;12.68;;;6.20;;
73776;SDS011;62088;50.240;2.696;2024-02-16T09:16:51;12.88;;;6.32;;
73776;SDS011;62088;50.240;2.696;2024-02-16T09:19:18;19.95;;;8.50;;
73776;SDS011;62088;50.240;2.696;2024-02-16T09:21:46;19.98;;;8.52;;
73776;SDS011;62088;50.240;2.696;2024-02-16T09:24:16;22.42;;;6.28;;
73776;SDS011;62088;50.240;2.696;2024-02-16T09:26:45;14.63;;;7.90;;
73776;SDS011;62088;50.240;2.696;2024-02-16T09:29:15;14.40;;;7.55;;
73776;SDS011;62088;50.240;2.696;2024-02-16T09:31:44;18.30;;;7.18;;
73776;SDS011;62088;50.240;2.696;2024-02-16T09:34:15;23.95;;;9.98;;
73776;SDS011;62088;50.240;2.696;2024-02-16T09:36:42;17.30;;;8.73;;
73776;SDS011;62088;50.240;2.696;2024-02-16T09:39:09;13.52;;;6.25;;
73776;SDS011;62088;50.240;2.696;2024-02-16T09:41:36;11.40;;;6.65;;
73776;SDS011;62088;50.240;2.696;2024-02-16T09:44:14;10.90;;;7.25;;
73776;SDS011;62088;50.240;2.696;2024-02-16T09:46:42;5.70;;;3.42;;
73776;SDS011;62088;50.240;2.696;2024-02-16T09:49:09;9.25;;;4.65;;
73776;SDS011;62088;50.240;2.696;2024-02-16T09:51:37;6.85;;;4.07;;
73776;SDS011;62088;50.240;2.696;2024-02-16T09:54:05;13.70;;;7.43;;
73776;SDS011;62088;50.240;2.696;2024-02-16T09:56:33;14.45;;;5.38;;
73776;SDS011;62088;50.240;2.696;2024-02-16T09:59:01;10.50;;;5.78;;
73776;SDS011;62088;50.240;2.696;2024-02-16T10:01:31;11.45;;;6.80;;
73776;SDS011;62088;50.240;2.696;2024-02-16T10:04:07;14.30;;;9.07;;
73776;SDS011;62088;50.240;2.696;2024-02-16T10:06:47;12.65;;;6.60;;
73776;SDS011;62088;50.240;2.696;2024-02-16T10:09:24;17.80;;;12.73;;
73776;SDS011;62088;50.240;2.696;2024-02-16T10:11:53;11.68;;;6.70;;
73776;SDS011;62088;50.240;2.696;2024-02-16T10:14:20;13.45;;;7.35;;
73776;SDS011;62088;50.240;2.696;2024-02-16T10:16:47;13.65;;;6.57;;
73776;SDS011;62088;50.240;2.696;2024-02-16T10:19:25;12.57;;;6.65;;
73776;SDS011;62088;50.240;2.696;2024-02-16T10:21:52;14.02;;;8.23;;
73776;SDS011;62088;50.240;2.696;2024-02-16T10:24:22;15.13;;;8.52;;
73776;SDS011;62088;50.240;2.696;2024-02-16T10:26:50;10.88;;;5.93;;
73776;SDS011;62088;50.240;2.696;2024-02-16T10:29:17;7.95;;;5.60;;
73776;SDS011;62088;50.240;2.696;2024-02-16T10:31:48;9.85;;;6.28;;
73776;SDS011;62088;50.240;2.696;2024-02-16T10:34:16;8.68;;;5.45;;
73776;SDS011;62088;50.240;2.696;2024-02-16T10:36:45;12.80;;;6.30;;
73776;SDS011;62088;50.240;2.696;2024-02-16T10:39:13;8.52;;;5.60;;
73776;SDS011;62088;50.240;2.696;2024-02-16T10:41:41;10.07;;;5.68;;
73776;SDS011;62088;50.240;2.696;2024-02-16T10:44:08;12.25;;;8.07;;
73776;SDS011;62088;50.240;2.696;2024-02-16T10:46:36;13.00;;;8.65;;
73776;SDS011;62088;50.240;2.696;2024-02-16T10:49:04;14.43;;;9.75;;
73776;SDS011;62088;50.240;2.696;2024-02-16T10:51:36;17.38;;;12.88;;
73776;SDS011;62088;50.240;2.696;2024-02-16T10:54:05;13.73;;;7.47;;
73776;SDS011;62088;50.240;2.696;2024-02-16T10:56:34;12.27;;;7.35;;
73776;SDS011;62088;50.240;2.696;2024-02-16T10:59:03;13.10;;;9.00;;
73776;SDS011;62088;50.240;2.696;2024-02-16T11:01:32;15.57;;;7.43;;
73776;SDS011;62088;50.240;2.696;2024-02-16T11:04:00;13.15;;;8.23;;
73776;SDS011;62088;50.240;2.696;2024-02-16T11:06:29;14.63;;;9.60;;
73776;SDS011;62088;50.240;2.696;2024-02-16T11:09:02;12.68;;;7.05;;
73776;SDS011;62088;50.240;2.696;2024-02-16T11:11:36;14.98;;;8.43;;
73776;SDS011;62088;50.240;2.696;2024-02-16T11:14:03;12.77;;;6.45;;
73776;SDS011;62088;50.240;2.696;2024-02-16T11:16:47;12.70;;;7.68;;
73776;SDS011;62088;50.240;2.696;2024-02-16T11:19:14;12.32;;;6.93;;
73776;SDS011;62088;50.240;2.696;2024-02-16T11:21:58;11.68;;;6.57;;
73776;SDS011;62088;50.240;2.696;2024-02-16T11:24:31;15.15;;;8.75;;
73776;SDS011;62088;50.240;2.696;2024-02-16T11:27:02;16.15;;;7.53;;
73776;SDS011;62088;50.240;2.696;2024-02-16T11:29:35;9.85;;;6.38;;
73776;SDS011;62088;50.240;2.696;2024-02-16T11:32:03;7.75;;;5.35;;
73776;SDS011;62088;50.240;2.696;2024-02-16T11:34:31;8.77;;;5.28;;
73776;SDS011;62088;50.240;2.696;2024-02-16T11:36:59;10.57;;;6.40;;
73776;SDS011;62088;50.240;2.696;2024-02-16T11:39:31;6.63;;;4.25;;
73776;SDS011;62088;50.240;2.696;2024-02-16T11:42:07;8.13;;;4.57;;
73776;SDS011;62088;50.240;2.696;2024-02-16T11:44:39;7.10;;;3.78;;
73776;SDS011;62088;50.240;2.696;2024-02-16T11:47:18;7.03;;;4.07;;
73776;SDS011;62088;50.240;2.696;2024-02-16T11:50:05;6.07;;;4.38;;
73776;SDS011;62088;50.240;2.696;2024-02-16T11:52:39;5.60;;;3.17;;
73776;SDS011;62088;50.240;2.696;2024-02-16T11:55:07;7.03;;;4.10;;
73776;SDS011;62088;50.240;2.696;2024-02-16T11:57:35;7.32;;;3.05;;
73776;SDS011;62088;50.240;2.696;2024-02-16T12:00:04;5.20;;;2.65;;
73776;SDS011;62088;50.240;2.696;2024-02-16T12:02:35;4.30;;;2.38;;
73776;SDS011;62088;50.240;2.696;2024-02-16T12:05:03;5.50;;;3.53;;
73776;SDS011;62088;50.240;2.696;2024-02-16T12:07:31;4.40;;;2.65;;
73776;SDS011;62088;50.240;2.696;2024-02-16T12:10:01;4.97;;;2.50;;
73776;SDS011;62088;50.240;2.696;2024-02-16T12:12:31;4.65;;;2.70;;
73776;SDS011;62088;50.240;2.696;2024-02-16T12:15:00;7.03;;;2.72;;
73776;SDS011;62088;50.240;2.696;2024-02-16T12:17:27;5.05;;;2.75;;
73776;SDS011;62088;50.240;2.696;2024-02-16T12:19:54;6.35;;;3.42;;
73776;SDS011;62088;50.240;2.696;2024-02-16T12:22:22;9.75;;;4.15;;
73776;SDS011;62088;50.240;2.696;2024-02-16T12:24:50;9.48;;;3.80;;
73776;SDS011;62088;50.240;2.696;2024-02-16T12:27:17;8.25;;;3.80;;
73776;SDS011;62088;50.240;2.696;2024-02-16T12:29:45;6.75;;;2.95;;
73776;SDS011;62088;50.240;2.696;2024-02-16T12:32:13;6.85;;;3.42;;
73776;SDS011;62088;50.240;2.696;2024-02-16T12:34:45;8.52;;;2.70;;
73776;SDS011;62088;50.240;2.696;2024-02-16T12:37:13;6.40;;;2.90;;
73776;SDS011;62088;50.240;2.696;2024-02-16T12:39:40;7.40;;;3.60;;
73776;SDS011;62088;50.240;2.696;2024-02-16T12:42:07;8.10;;;3.15;;
73776;SDS011;62088;50.240;2.696;2024-02-16T12:44:35;8.38;;;2.95;;
73776;SDS011;62088;50.240;2.696;2024-02-16T12:47:02;6.53;;;2.50;;
73776;SDS011;62088;50.240;2.696;2024-02-16T12:49:29;9.00;;;1.92;;
73776;SDS011;62088;50.240;2.696;2024-02-16T12:51:57;5.15;;;2.25;;
73776;SDS011;62088;50.240;2.696;2024-02-16T12:54:24;10.43;;;2.60;;
73776;SDS011;62088;50.240;2.696;2024-02-16T12:56:52;5.75;;;2.38;;
73776;SDS011;62088;50.240;2.696;2024-02-16T12:59:20;7.40;;;2.75;;
73776;SDS011;62088;50.240;2.696;2024-02-16T13:01:47;8.75;;;2.25;;
73776;SDS011;62088;50.240;2.696;2024-02-16T13:04:15;6.35;;;2.10;;
73776;SDS011;62088;50.240;2.696;2024-02-16T13:06:48;7.35;;;3.53;;
73776;SDS011;62088;50.240;2.696;2024-02-16T13:09:17;6.78;;;2.03;;
73776;SDS011;62088;50.240;2.696;2024-02-16T13:11:44;4.70;;;1.65;;
73776;SDS011;62088;50.240;2.696;2024-02-16T13:14:11;3.90;;;1.40;;
73776;SDS011;62088;50.240;2.696;2024-02-16T13:16:39;8.32;;;1.88;;
73776;SDS011;62088;50.240;2.696;2024-02-16T13:19:06;5.05;;;1.52;;
73776;SDS011;62088;50.240;2.696;2024-02-16T13:21:33;8.30;;;2.03;;
73776;SDS011;62088;50.240;2.696;2024-02-16T13:24:01;9.90;;;1.77;;
73776;SDS011;62088;50.240;2.696;2024-02-16T13:26:28;8.10;;;2.13;;
73776;SDS011;62088;50.240;2.696;2024-02-16T13:28:56;8.85;;;2.22;;
73776;SDS011;62088;50.240;2.696;2024-02-16T13:31:23;12.80;;;1.90;;
73776;SDS011;62088;50.240;2.696;2024-02-16T13:33:52;10.40;;;2.13;;
73776;SDS011;62088;50.240;2.696;2024-02-16T13:36:20;9.55;;;2.17;;
73776;SDS011;62088;50.240;2.696;2024-02-16T13:38:48;12.18;;;2.90;;
73776;SDS011;62088;50.240;2.696;2024-02-16T13:41:15;10.68;;;2.63;;
73776;SDS011;62088;50.240;2.696;2024-02-16T13:43:46;9.70;;;2.20;;
73776;SDS011;62088;50.240;2.696;2024-02-16T13:46:13;10.93;;;2.72;;
73776;SDS011;62088;50.240;2.696;2024-02-16T13:48:41;7.97;;;1.80;;
73776;SDS011;62088;50.240;2.696;2024-02-16T13:51:08;8.95;;;2.65;;
73776;SDS011;62088;50.240;2.696;2024-02-16T13:53:36;14.77;;;4.00;;
73776;SDS011;62088;50.240;2.696;2024-02-16T13:56:03;12.65;;;3.17;;
73776;SDS011;62088;50.240;2.696;2024-02-16T13:58:32;8.93;;;2.83;;
73776;SDS011;62088;50.240;2.696;2024-02-16T14:01:01;16.38;;;3.63;;
73776;SDS011;62088;50.240;2.696;2024-02-16T14:03:30;12.20;;;2.78;;
73776;SDS011;62088;50.240;2.696;2024-02-16T14:05:59;5.25;;;1.80;;
73776;SDS011;62088;50.240;2.696;2024-02-16T14:08:27;7.13;;;2.17;;
73776;SDS011;62088;50.240;2.696;2024-02-16T14:10:54;12.50;;;3.13;;
73776;SDS011;62088;50.240;2.696;2024-02-16T14:13:21;10.57;;;2.55;;
73776;SDS011;62088;50.240;2.696;2024-02-16T14:15:51;12.30;;;2.78;;
73776;SDS011;62088;50.240;2.696;2024-02-16T14:18:19;13.48;;;2.80;;
73776;SDS011;62088;50.240;2.696;2024-02-16T14:21:00;10.77;;;2.75;;
73776;SDS011;62088;50.240;2.696;2024-02-16T14:23:29;9.60;;;2.38;;
73776;SDS011;62088;50.240;2.696;2024-02-16T14:25:57;8.88;;;2.25;;
73776;SDS011;62088;50.240;2.696;2024-02-16T14:28:27;7.70;;;2.15;;
73776;SDS011;62088;50.240;2.696;2024-02-16T14:30:54;10.30;;;2.67;;
73776;SDS011;62088;50.240;2.696;2024-02-16T14:33:21;11.95;;;3.75;;
73776;SDS011;62088;50.240;2.696;2024-02-16T14:36:00;11.15;;;1.85;;
73776;SDS011;62088;50.240;2.696;2024-02-16T14:38:31;12.23;;;2.97;;
73776;SDS011;62088;50.240;2.696;2024-02-16T14:40:58;12.25;;;2.45;;
73776;SDS011;62088;50.240;2.696;2024-02-16T14:43:29;4.95;;;1.98;;
73776;SDS011;62088;50.240;2.696;2024-02-16T14:45:57;7.82;;;2.42;;
73776;SDS011;62088;50.240;2.696;2024-02-16T14:48:24;13.00;;;3.33;;